LEST Airport Information

Runway Information
Runway 17 Length 10499 ft width 148 ft
Elevation 1170 ft Threshold 394 ft Heading 166
Runway 35 Length 10499 ft Width 148 ft
Elevation 1196 ft Threshold ft Heading 346
Airport Frequencies
Type APP Name APP Frequency 118.2 MHZ
Type GND Name GND Frequency 121.7 MHZ
Type TWR Name TWR Frequency 118.75 MHZ
Airport Navaids
Type NDB Name Santiago Frequency 417 KHZ
Type VOR-DME Name Santiago Frequency 116400 KHZ
Airport Weather Information & NOTAM
ADDS - METARS form results

(2328 UTC 01 December 2022)
Data provider http://aviationweather.gov/metar/data/
 
METAR text: LEST 012300Z 11003KT CAVOK 06/04 Q1016 NOSIG
Conditions at: LEST (SANTIAGO/LABACOL, ES) observed 2300 UTC 01 December 2022
Temperature: 6.0°C (43°F)
Dewpoint: 4.0°C (39°F) [RH = 87%]
Pressure (altimeter): 30.00 inches Hg (1016.0 mb)
Winds: from the ESE (110 degrees) at 3 MPH (3 knots; 1.5 m/s)
Visibility: 6 or more miles (10+ km)
Ceiling: ceiling and visibility are OK
Clouds: unknown
Weather: no significant weather observed at this time

METAR text: LEST 012230Z VRB02KT CAVOK 06/04 Q1016 NOSIG
Conditions at: LEST (SANTIAGO/LABACOL, ES) observed 2230 UTC 01 December 2022
Temperature: 6.0°C (43°F)
Dewpoint: 4.0°C (39°F) [RH = 87%]
Pressure (altimeter): 30.00 inches Hg (1016.0 mb)
Winds: variable direction winds at 2 MPH (2 knots; 1.0 m/s)
Visibility: 6 or more miles (10+ km)
Ceiling: ceiling and visibility are OK
Clouds: unknown
Weather: no significant weather observed at this time

Forecast for: LEST (SANTIAGO/LABACOL, ES)
Text: TAF LEST 012300Z 0200/0224 10009KT CAVOK TX12/0214Z TN02/0224Z
Forecast period: 0000 UTC 02 December 2022 to 0000 UTC 03 December 2022
Forecast type: FROM: standard forecast or significant change
Winds: from the E (100 degrees) at 10 MPH (9 knots; 4.6 m/s)
Visibility: 6 or more miles (10+ km)
Ceiling: unknown
Clouds: missing
Weather: no significant weather forecast for this period
Text: PROB30
Forecast period: 0000 to 1000 UTC 02 December 2022
Forecast type: TEMPORARY: The following changes expected for less than half the time period
Visibility: 1.86 miles (2.99 km)
Ceiling: 500 feet AGL
Clouds: broken clouds at 500 feet AGL
Weather: BR BCFG  (mist, patches of fog)
Text: TEMPO 0200/0210 3000 BR BCFG BKN005
Forecast period: 0000 to 1000 UTC 02 December 2022
Forecast type: TEMPORARY: The following changes expected for less than half the time period
Visibility: 0.22 miles (0.35 km)
Ceiling: indefinite ceiling with vertical visibility of 100 feet AGL
Clouds: obscured sky
Weather: FG  (fog)